Time;durP1;ratioP1;P1;durP2;ratioP2;P2;SDS_P1;SDS_P2;PMS_P1;PMS_P2;Temp;Humidity;BMP_temperature;BMP_pressure;BME280_temperature;BME280_humidity;BME280_pressure;Samples;Min_cycle;Max_cycle;Signal;HPM_P1;HPM_P2
2022/07/18 00:01:22;;;;;;;4.40;4.00;;;;;;;26.59;32.43;95766.44;6167543;28;104149;-56
2022/07/18 00:04:26;;;;;;;5.93;4.30;;;;;;;26.50;32.15;95760.28;6175277;28;103422;-56
2022/07/18 00:07:29;;;;;;;4.47;3.83;;;;;;;26.40;32.49;95756.03;6184305;28;102984;-56
2022/07/18 00:10:34;;;;;;;7.93;3.67;;;;;;;26.51;32.82;95772.59;6182263;28;103165;-57
2022/07/18 00:13:37;;;;;;;3.93;3.40;;;;;;;26.47;32.68;95761.69;6178451;28;103382;-56
2022/07/18 00:16:40;;;;;;;3.47;3.17;;;;;;;26.41;32.65;95756.81;6160441;28;104200;-55
2022/07/18 00:19:43;;;;;;;3.27;3.07;;;;;;;26.41;32.98;95759.50;6159532;28;103031;-56
2022/07/18 00:22:46;;;;;;;3.70;3.40;;;;;;;26.43;32.90;95758.06;6145458;28;103899;-56
2022/07/18 00:25:51;;;;;;;3.57;3.27;;;;;;;26.54;32.85;95761.22;6171700;28;103452;-56
2022/07/18 00:28:54;;;;;;;3.13;2.70;;;;;;;26.64;32.41;95762.81;6172688;28;103785;-56
2022/07/18 00:31:57;;;;;;;4.07;3.10;;;;;;;26.65;32.60;95740.25;6178664;28;103774;-56
2022/07/18 00:35:00;;;;;;;3.60;3.30;;;;;;;26.79;32.36;95757.75;6152167;28;104159;-56
2022/07/18 00:38:04;;;;;;;3.17;2.97;;;;;;;26.82;32.04;95759.81;6186793;28;103928;-56
2022/07/18 00:41:08;;;;;;;3.10;2.83;;;;;;;26.85;31.95;95756.47;6186247;28;104362;-56
2022/07/18 00:44:17;;;;;;;3.60;3.07;;;;;;;26.87;32.02;95753.47;6176894;28;103137;-56
2022/07/18 00:47:20;;;;;;;2.80;2.60;;;;;;;26.80;31.71;95753.97;6157413;28;103220;-58
2022/07/18 00:50:25;;;;;;;2.77;2.57;;;;;;;26.68;31.89;95759.19;6158122;28;103174;-56
2022/07/18 00:53:28;;;;;;;5.10;2.40;;;;;;;26.53;32.01;95775.75;6161506;28;104238;-57
2022/07/18 00:56:33;;;;;;;3.53;3.20;;;;;;;26.32;31.65;95746.06;6170565;28;104527;-57
2022/07/18 01:02:57;;;;;;;2.20;2.10;;;;;;;26.21;31.58;95761.72;6174862;28;103150;-56
2022/07/18 01:06:01;;;;;;;5.30;2.20;;;;;;;26.17;31.56;95766.09;6167838;28;103967;-56
2022/07/18 01:09:04;;;;;;;2.50;2.30;;;;;;;26.09;31.49;95761.53;6150375;28;103747;-56
2022/07/18 01:12:10;;;;;;;2.60;2.40;;;;;;;26.03;31.54;95757.41;6159650;28;103003;-57
2022/07/18 01:15:14;;;;;;;2.33;2.23;;;;;;;26.05;31.68;95760.59;6164780;28;103833;-56
2022/07/18 01:18:17;;;;;;;3.40;2.67;;;;;;;26.10;31.71;95752.38;6184874;28;103131;-57
2022/07/18 01:21:22;;;;;;;2.53;2.27;;;;;;;26.18;31.26;95750.78;6176833;28;104174;-56
2022/07/18 01:24:25;;;;;;;3.63;2.40;;;;;;;26.32;31.26;95759.47;6181357;28;103087;-55
2022/07/18 01:27:29;;;;;;;2.47;2.10;;;;;;;26.35;31.22;95752.69;6161351;28;104309;-56
2022/07/18 01:30:32;;;;;;;2.53;2.27;;;;;;;26.40;30.91;95760.59;6168344;28;104007;-56
2022/07/18 01:33:35;;;;;;;3.00;2.00;;;;;;;26.44;31.13;95753.50;6166179;28;104245;-56
2022/07/18 01:36:40;;;;;;;2.30;2.10;;;;;;;26.41;30.99;95759.50;6160467;28;103378;-54
2022/07/18 01:39:44;;;;;;;2.00;1.90;;;;;;;26.31;30.66;95754.44;6161723;28;103070;-54
2022/07/18 01:42:47;;;;;;;3.20;2.37;;;;;;;26.19;31.02;95755.06;6156844;28;102900;-54
2022/07/18 01:45:50;;;;;;;2.50;2.30;;;;;;;26.10;30.80;95751.59;6185743;28;102918;-56
2022/07/18 01:48:53;;;;;;;2.50;2.30;;;;;;;26.02;30.83;95744.31;6172011;28;103954;-57
2022/07/18 01:51:58;;;;;;;2.10;1.90;;;;;;;25.91;31.39;95749.16;6185418;28;103114;-57
2022/07/18 01:55:01;;;;;;;2.63;2.20;;;;;;;25.88;31.77;95750.59;6156488;28;103347;-57
2022/07/18 01:58:06;;;;;;;2.80;2.60;;;;;;;25.80;31.35;95751.34;6139628;28;103113;-57
2022/07/18 02:01:09;;;;;;;2.50;2.30;;;;;;;25.78;31.81;95744.72;6176006;28;103515;-57
2022/07/18 02:04:12;;;;;;;2.43;2.13;;;;;;;25.76;31.90;95753.06;6179851;28;103972;-57
2022/07/18 02:07:16;;;;;;;2.57;2.37;;;;;;;25.85;31.53;95755.75;6168257;28;102817;-56
2022/07/18 02:10:22;;;;;;;2.47;1.90;;;;;;;25.95;31.37;95752.78;6180077;28;103306;-56
2022/07/18 02:13:25;;;;;;;4.90;4.50;;;;;;;26.01;30.90;95754.25;6162541;28;103973;-57
2022/07/18 02:16:28;;;;;;;6.60;6.10;;;;;;;26.06;31.42;95764.06;6157361;28;102974;-56
2022/07/18 02:19:32;;;;;;;10.20;9.30;;;;;;;26.10;31.14;95770.38;6181054;28;105079;-57
2022/07/18 02:22:37;;;;;;;7.93;7.33;;;;;;;26.11;31.00;95759.31;6189230;28;103181;-56
2022/07/18 02:25:40;;;;;;;4.83;4.40;;;;;;;26.09;30.71;95769.56;6170963;28;103256;-56
2022/07/18 02:28:43;;;;;;;4.70;4.30;;;;;;;25.96;31.08;95763.22;6160455;28;103217;-57
2022/07/18 02:31:46;;;;;;;7.30;6.70;;;;;;;25.96;31.20;95773.16;6163966;28;103239;-56
2022/07/18 02:34:49;;;;;;;6.00;5.50;;;;;;;25.84;31.50;95783.69;6164427;28;103136;-56
2022/07/18 02:37:55;;;;;;;5.37;4.97;;;;;;;25.74;31.40;95782.09;6162526;28;103998;-56
2022/07/18 02:40:58;;;;;;;5.17;3.80;;;;;;;25.68;31.33;95786.00;6157989;28;104261;-57
2022/07/18 02:44:01;;;;;;;5.27;4.87;;;;;;;25.63;31.60;95784.25;6164181;28;103201;-56
2022/07/18 02:47:04;;;;;;;6.20;5.70;;;;;;;25.50;31.68;95779.78;6163681;28;103134;-57
2022/07/18 02:50:09;;;;;;;6.87;6.30;;;;;;;25.52;31.78;95790.97;6154851;28;103590;-57
2022/07/18 02:53:13;;;;;;;4.47;4.07;;;;;;;25.45;31.55;95795.22;6163878;28;104172;-57
2022/07/18 02:56:16;;;;;;;3.80;3.27;;;;;;;25.46;31.40;95802.94;6163579;28;103049;-56
2022/07/18 02:59:19;;;;;;;3.23;3.00;;;;;;;25.57;30.97;95798.13;6164165;28;103116;-56
2022/07/18 03:02:22;;;;;;;3.20;3.00;;;;;;;25.60;30.71;95792.91;6154052;28;104196;-56
2022/07/18 03:05:25;;;;;;;3.07;2.83;;;;;;;25.65;31.08;95800.03;6163804;28;103011;-56
2022/07/18 03:08:30;;;;;;;2.97;2.77;;;;;;;25.65;31.17;95800.03;6163170;28;104101;-56
2022/07/18 03:11:33;;;;;;;5.07;2.67;;;;;;;25.72;31.44;95800.38;6163521;28;103028;-56
2022/07/18 03:14:36;;;;;;;2.53;2.20;;;;;;;25.73;31.24;95807.31;6153816;28;104450;-57
2022/07/18 03:17:40;;;;;;;2.23;2.13;;;;;;;25.63;30.84;95796.88;6163299;28;104218;-56
2022/07/18 03:20:43;;;;;;;3.57;2.87;;;;;;;25.59;31.14;95798.59;6163097;28;102978;-56
2022/07/18 03:23:47;;;;;;;3.80;3.50;;;;;;;25.48;31.27;95806.09;6157548;28;103576;-56
2022/07/18 03:26:51;;;;;;;3.60;3.30;;;;;;;25.32;31.33;95796.84;6159059;28;103256;-56
2022/07/18 03:29:54;;;;;;;2.90;2.70;;;;;;;25.28;31.35;95795.91;6161825;28;103148;-56
2022/07/18 03:32:57;;;;;;;4.00;2.30;;;;;;;25.26;31.17;95806.91;6169602;28;103114;-58
2022/07/18 03:36:03;;;;;;;5.63;2.70;;;;;;;25.30;31.90;95796.38;6153386;28;103372;-62
2022/07/18 03:39:08;;;;;;;9.73;3.13;;;;;;;25.35;32.24;95806.97;6159346;28;104128;-60
2022/07/18 03:42:11;;;;;;;4.37;2.57;;;;;;;25.43;31.18;95798.22;6160091;28;103678;-59
2022/07/18 03:45:14;;;;;;;6.90;2.30;;;;;;;25.55;31.41;95814.50;6169835;28;104052;-51
2022/07/18 03:48:17;;;;;;;6.23;2.33;;;;;;;25.81;32.07;95814.59;6156618;28;104386;-62
2022/07/18 03:51:21;;;;;;;4.67;2.40;;;;;;;25.95;32.25;95799.19;6166854;28;104572;-60
2022/07/18 03:54:25;;;;;;;2.30;2.10;;;;;;;26.16;31.31;95825.44;6151487;28;104309;-61
2022/07/18 03:57:28;;;;;;;4.60;2.00;;;;;;;26.22;31.51;95814.25;6134475;28;104170;-61
2022/07/18 04:00:31;;;;;;;2.33;2.13;;;;;;;26.35;30.88;95811.72;6139349;28;103181;-61
2022/07/18 04:03:35;;;;;;;2.63;2.10;;;;;;;26.39;30.84;95810.81;6170545;28;103348;-60
2022/07/18 04:06:38;;;;;;;2.43;2.17;;;;;;;26.46;31.09;95813.00;6175403;28;103291;-60
2022/07/18 04:09:42;;;;;;;2.40;2.20;;;;;;;26.29;31.98;95805.75;6166094;28;102918;-60
2022/07/18 04:12:47;;;;;;;2.03;1.93;;;;;;;26.27;31.61;95835.56;6168927;28;102966;-60
2022/07/18 04:15:50;;;;;;;3.17;2.50;;;;;;;26.18;32.26;95817.88;6173918;28;105118;-59
2022/07/18 04:18:53;;;;;;;3.50;2.67;;;;;;;25.97;33.55;95807.69;6184346;28;104388;-59
2022/07/18 04:21:56;;;;;;;6.93;2.90;;;;;;;25.98;33.55;95819.22;6176145;28;104158;-59
2022/07/18 04:25:01;;;;;;;10.40;3.23;;;;;;;25.89;32.88;95821.09;6183346;28;103213;-57
2022/07/18 04:28:04;;;;;;;2.97;2.70;;;;;;;25.85;33.41;95820.91;6160690;28;103064;-60
2022/07/18 04:31:07;;;;;;;3.47;2.50;;;;;;;25.89;32.05;95821.09;6163361;28;103557;-60
2022/07/18 04:34:11;;;;;;;3.37;3.07;;;;;;;25.93;33.17;95816.69;6157427;28;102883;-60
2022/07/18 04:37:14;;;;;;;5.23;2.87;;;;;;;26.08;32.61;95821.66;6173027;28;102866;-61
2022/07/18 04:40:19;;;;;;;5.60;2.90;;;;;;;26.17;32.69;95806.34;6175969;28;103796;-60
2022/07/18 04:43:22;;;;;;;5.10;2.60;;;;;;;26.18;32.87;95820.53;6177074;28;104245;-60
2022/07/18 04:46:25;;;;;;;3.63;2.87;;;;;;;26.07;32.22;95806.66;6165407;28;103957;-60
2022/07/18 04:49:28;;;;;;;3.70;2.70;;;;;;;26.12;32.09;95811.88;6161656;28;103332;-60
2022/07/18 04:52:37;;;;;;;3.90;2.90;;;;;;;26.16;31.98;95812.81;6161421;28;103211;-60
2022/07/18 04:55:42;;;;;;;7.70;2.77;;;;;;;26.16;31.84;95809.34;6151616;28;104127;-59
2022/07/18 04:58:45;;;;;;;4.40;2.60;;;;;;;26.05;32.79;95789.31;6161535;28;102918;-63
2022/07/18 05:01:48;;;;;;;6.93;3.40;;;;;;;25.69;31.92;95803.66;6160892;28;103264;-60
2022/07/18 05:04:52;;;;;;;6.23;3.07;;;;;;;25.29;32.81;95803.63;6161213;28;103008;-61
2022/07/18 05:07:55;;;;;;;5.77;3.30;;;;;;;24.78;33.66;95809.44;6150146;28;103859;-61
2022/07/18 05:11:00;;;;;;;4.00;2.73;;;;;;;24.54;33.63;95800.91;6161189;28;102991;-61
2022/07/18 05:14:03;;;;;;;7.97;3.20;;;;;;;24.41;34.28;95805.19;6160688;28;103349;-62
2022/07/18 05:17:06;;;;;;;3.23;2.90;;;;;;;24.45;34.76;95800.81;6156077;28;102945;-61
2022/07/18 05:20:12;;;;;;;5.03;2.93;;;;;;;24.66;34.28;95809.16;6156468;28;103146;-61
2022/07/18 05:23:16;;;;;;;5.00;3.33;;;;;;;24.28;34.78;95804.13;6160806;28;103006;-61
2022/07/18 05:26:20;;;;;;;4.70;2.90;;;;;;;24.72;34.04;95802.66;6160709;28;103300;-61
2022/07/18 05:29:23;;;;;;;6.60;3.10;;;;;;;24.97;34.06;95791.31;6150072;28;104167;-60
2022/07/18 05:32:26;;;;;;;2.80;2.20;;;;;;;25.17;33.84;95808.75;6160643;28;104224;-60
2022/07/18 05:35:30;;;;;;;4.07;2.77;;;;;;;25.14;33.37;95806.69;6161093;28;102720;-61
2022/07/18 05:38:33;;;;;;;6.57;2.53;;;;;;;25.47;33.31;95806.41;6160521;28;103184;-63
2022/07/18 05:41:37;;;;;;;3.33;2.20;;;;;;;25.67;33.37;95805.84;6150920;28;103772;-65
2022/07/18 05:44:40;;;;;;;4.43;2.30;;;;;;;25.83;32.99;95806.22;6160897;28;103910;-63
2022/07/18 05:47:43;;;;;;;5.73;2.27;;;;;;;26.03;32.80;95805.69;6163271;28;104212;-63
2022/07/18 05:50:47;;;;;;;8.50;2.20;;;;;;;26.06;32.51;95809.66;6162419;28;104185;-58
2022/07/18 05:53:50;;;;;;;4.83;2.30;;;;;;;26.07;32.57;95808.56;6158035;28;103935;-62
2022/07/18 05:56:55;;;;;;;4.20;2.27;;;;;;;26.08;32.67;95802.88;6164683;28;102998;-63
2022/07/18 05:59:58;;;;;;;4.77;2.27;;;;;;;26.10;32.68;95808.72;6164371;28;103126;-63
2022/07/18 06:03:02;;;;;;;4.43;2.70;;;;;;;26.10;32.41;95802.56;6154219;28;102963;-61
2022/07/18 06:06:05;;;;;;;2.83;2.53;;;;;;;25.85;32.54;95778.00;6163886;28;104066;-63
2022/07/18 06:09:09;;;;;;;6.83;2.50;;;;;;;26.05;32.75;95805.41;6164625;28;103147;-63
2022/07/18 06:12:13;;;;;;;5.10;2.50;;;;;;;26.06;32.81;95810.44;6163834;28;102972;-64
2022/07/18 06:15:17;;;;;;;4.43;2.80;;;;;;;26.14;32.71;95801.63;6154067;28;102967;-64
2022/07/18 06:18:20;;;;;;;3.77;2.93;;;;;;;26.31;33.13;95795.47;6164769;28;104271;-58
2022/07/18 06:21:23;;;;;;;2.90;2.60;;;;;;;26.54;32.73;95801.47;6164491;28;105484;-60
2022/07/18 06:24:26;;;;;;;4.63;2.70;;;;;;;26.73;32.75;95796.63;6164806;28;104043;-60
2022/07/18 06:27:31;;;;;;;3.63;2.67;;;;;;;26.95;32.50;95794.88;6154379;28;104912;-60
2022/07/18 06:30:34;;;;;;;5.53;2.67;;;;;;;27.08;32.47;95796.59;6161482;28;105983;-60
2022/07/18 06:33:37;;;;;;;16.53;10.10;;;;;;;27.14;32.53;95789.91;6164527;28;103011;-60
2022/07/18 06:36:41;;;;;;;36.97;23.77;;;;;;;27.16;32.26;95788.50;6158904;28;103874;-61
2022/07/18 06:39:44;;;;;;;43.00;30.00;;;;;;;27.15;31.35;95788.81;6159184;28;104784;-60
2022/07/18 06:42:48;;;;;;;52.67;34.47;;;;;;;26.96;32.44;95772.25;6163878;28;103710;-58
2022/07/18 06:45:52;;;;;;;47.43;30.70;;;;;;;26.93;31.94;95789.81;6163859;28;103358;-59
2022/07/18 06:48:55;;;;;;;39.57;27.27;;;;;;;26.83;32.36;95779.38;6153523;28;103364;-59
2022/07/18 06:51:58;;;;;;;26.40;18.07;;;;;;;26.72;32.68;95773.56;6163311;28;103304;-60
2022/07/18 06:55:07;;;;;;;25.77;18.40;;;;;;;26.69;32.60;95760.75;6163848;28;104182;-61
2022/07/18 06:58:13;;;;;;;18.03;10.90;;;;;;;26.35;30.74;95741.97;6162847;28;105245;-59
2022/07/18 07:01:17;;;;;;;17.00;9.73;;;;;;;26.56;31.36;95775.13;6152955;28;103204;-59
2022/07/18 07:04:20;;;;;;;14.93;9.63;;;;;;;26.61;31.30;95779.53;6163493;28;103027;-58
2022/07/18 07:07:23;;;;;;;11.47;7.87;;;;;;;26.59;32.03;95774.50;6163005;28;103093;-59
2022/07/18 07:10:26;;;;;;;11.27;7.10;;;;;;;26.68;31.12;95766.44;6158902;28;103556;-63
2022/07/18 07:13:31;;;;;;;12.17;7.20;;;;;;;26.76;31.55;95781.78;6157689;28;103145;-59
2022/07/18 07:16:34;;;;;;;10.00;6.47;;;;;;;26.99;31.39;95785.06;6163431;28;103977;-58
2022/07/18 07:19:37;;;;;;;8.10;5.97;;;;;;;27.14;30.68;95779.19;6163508;28;104353;-60
2022/07/18 07:22:45;;;;;;;8.10;6.13;;;;;;;27.35;30.96;95779.28;6153530;28;105153;-60
2022/07/18 07:25:48;;;;;;;8.70;6.30;;;;;;;27.43;30.43;95786.56;6162822;28;103101;-56
2022/07/18 07:28:54;;;;;;;11.73;5.40;;;;;;;27.55;30.33;95789.34;6163029;28;103448;-60
2022/07/18 07:31:57;;;;;;;10.23;5.70;;;;;;;27.63;30.18;95779.66;6162781;28;104150;-60
2022/07/18 07:35:00;;;;;;;11.03;5.73;;;;;;;27.67;30.24;95788.66;6152165;28;104013;-60
2022/07/18 07:38:03;;;;;;;11.87;6.10;;;;;;;27.65;30.69;95782.81;6162602;28;103253;-60
2022/07/18 07:41:07;;;;;;;7.70;4.40;;;;;;;27.69;30.81;95778.38;6162831;28;103931;-60
2022/07/18 07:44:12;;;;;;;9.87;4.47;;;;;;;27.68;29.86;95777.56;6162177;28;102889;-58
2022/07/18 07:47:15;;;;;;;14.13;4.57;;;;;;;27.74;29.76;95781.69;6152592;28;104329;-59
2022/07/18 07:50:18;;;;;;;16.37;4.87;;;;;;;27.77;30.49;95781.03;6162159;28;103395;-60
2022/07/18 07:53:21;;;;;;;14.47;4.47;;;;;;;27.86;29.62;95781.00;6162480;28;103166;-59
2022/07/18 07:56:24;;;;;;;20.50;5.13;;;;;;;27.90;30.02;95773.88;6154017;28;103099;-60
2022/07/18 07:59:31;;;;;;;14.97;5.00;;;;;;;27.92;30.19;95782.41;6160365;28;103229;-59
2022/07/18 08:02:35;;;;;;;23.63;4.80;;;;;;;27.85;30.17;95778.59;6162449;28;104060;-58
2022/07/18 08:05:39;;;;;;;31.83;5.57;;;;;;;27.86;30.83;95780.19;6162019;28;103128;-59
2022/07/18 08:08:43;;;;;;;22.00;5.60;;;;;;;27.95;30.01;95786.34;6151855;28;103287;-61
2022/07/18 08:11:46;;;;;;;18.40;5.20;;;;;;;27.79;30.83;95786.06;6162093;28;104164;-60
2022/07/18 08:14:51;;;;;;;23.67;5.20;;;;;;;27.65;30.52;95777.44;6161225;28;104269;-59
2022/07/18 08:17:55;;;;;;;12.20;4.53;;;;;;;27.58;30.86;95782.53;6162255;28;102956;-60
2022/07/18 08:20:58;;;;;;;21.77;5.00;;;;;;;27.45;31.00;95782.44;6150644;28;103675;-59
2022/07/18 08:24:01;;;;;;;11.30;4.40;;;;;;;27.38;31.06;95790.19;6160613;28;103262;-59
2022/07/18 08:27:09;;;;;;;13.57;4.30;;;;;;;27.20;30.89;95771.72;6137867;28;102982;-59
2022/07/18 08:30:13;;;;;;;12.47;4.47;;;;;;;27.33;30.06;95782.31;6129780;28;104082;-60
2022/07/18 08:33:17;;;;;;;9.50;4.27;;;;;;;27.37;30.19;95791.28;6129889;28;104395;-57
2022/07/18 08:36:20;;;;;;;5.73;3.80;;;;;;;27.53;29.35;95780.03;6134901;28;104240;-60
2022/07/18 08:39:23;;;;;;;6.33;3.00;;;;;;;27.74;28.35;95776.31;6135303;28;103511;-58
2022/07/18 08:42:28;;;;;;;9.20;3.80;;;;;;;27.74;28.94;95775.50;6136280;28;103071;-61
2022/07/18 08:45:32;;;;;;;13.90;3.80;;;;;;;27.73;29.38;95782.00;6144556;28;103235;-56
2022/07/18 08:48:36;;;;;;;6.80;3.30;;;;;;;27.85;29.87;95792.84;6158541;28;104061;-55
2022/07/18 08:51:40;;;;;;;11.20;4.37;;;;;;;27.85;30.74;95792.84;6161124;28;103352;-56
2022/07/18 08:54:43;;;;;;;28.70;4.73;;;;;;;27.68;30.39;95779.47;6150833;28;103122;-59
2022/07/18 08:57:47;;;;;;;11.20;3.10;;;;;;;27.82;29.32;95788.13;6136417;28;103063;-58
2022/07/18 09:00:51;;;;;;;8.33;3.27;;;;;;;27.91;29.24;95783.53;6137554;28;104152;-58
2022/07/18 09:07:24;;;;;;;5.10;2.30;;;;;;;27.82;28.80;95780.03;6131864;28;103513;-61
2022/07/18 09:10:42;;;;;;;6.17;2.27;;;;;;;27.97;28.79;95767.97;6137299;28;103232;-57
2022/07/18 09:13:45;;;;;;;5.50;2.40;;;;;;;27.98;29.34;95770.31;6136238;28;104025;-58
2022/07/18 09:17:00;;;;;;;3.07;2.63;;;;;;;27.95;29.83;95771.00;6127154;28;103808;-59
2022/07/18 09:20:07;;;;;;;5.00;2.40;;;;;;;27.80;29.64;95774.19;6137231;28;103077;-59
2022/07/18 09:23:14;;;;;;;3.67;2.47;;;;;;;27.77;29.76;95777.56;6136391;28;103088;-59
2022/07/18 09:26:39;;;;;;;4.90;2.30;;;;;;;27.63;30.49;95768.91;6136420;28;103215;-56
2022/07/18 09:29:42;;;;;;;4.23;2.03;;;;;;;27.44;30.95;95775.47;6131031;28;104310;-59
2022/07/18 09:32:50;;;;;;;7.43;2.73;;;;;;;27.48;31.87;95767.56;6136895;28;103224;-54
2022/07/18 09:35:54;;;;;;;5.70;2.50;;;;;;;27.80;31.49;95768.03;6136864;28;103076;-54
2022/07/18 09:38:58;;;;;;;10.40;3.03;;;;;;;27.66;31.26;95769.03;6127181;28;104153;-54
2022/07/18 09:42:14;;;;;;;8.77;3.00;;;;;;;26.96;30.21;95766.91;6136629;28;102955;-54
2022/07/18 09:45:21;;;;;;;4.23;2.87;;;;;;;26.50;29.50;95771.00;6136363;28;103357;-54
2022/07/18 09:48:28;;;;;;;5.73;3.10;;;;;;;26.21;29.36;95763.56;6157040;28;102951;-53
2022/07/18 09:51:31;;;;;;;8.37;2.60;;;;;;;25.92;29.29;95761.47;6150399;28;103433;-52
2022/07/18 09:54:40;;;;;;;2.77;2.57;;;;;;;25.86;28.81;95760.00;6160697;28;103680;-54
2022/07/18 09:57:44;;;;;;;3.07;2.63;;;;;;;25.64;28.24;95756.34;6160569;28;103041;-53
2022/07/18 10:00:48;;;;;;;5.10;2.87;;;;;;;25.51;28.04;95756.44;6156295;28;103330;-53
2022/07/18 10:03:54;;;;;;;5.27;3.10;;;;;;;25.78;28.72;95750.06;6155368;28;103258;-53
2022/07/18 10:06:57;;;;;;;4.47;2.50;;;;;;;26.42;28.13;95755.72;6160792;28;102954;-53
2022/07/18 10:10:00;;;;;;;4.07;2.17;;;;;;;27.03;27.78;95749.16;6160351;28;103099;-53
2022/07/18 10:13:05;;;;;;;3.63;2.60;;;;;;;27.38;27.39;95743.69;6149543;28;102953;-53
2022/07/18 10:16:08;;;;;;;4.13;2.60;;;;;;;27.59;27.23;95743.78;6160858;28;104495;-53
2022/07/18 10:19:13;;;;;;;2.43;2.23;;;;;;;27.62;28.02;95743.13;6160106;28;102958;-53
2022/07/18 10:22:17;;;;;;;5.63;2.53;;;;;;;27.61;28.12;95733.50;6160642;28;102995;-53
2022/07/18 10:25:23;;;;;;;3.07;2.27;;;;;;;27.59;28.53;95725.75;6149087;28;103187;-53
2022/07/18 10:28:26;;;;;;;3.20;2.50;;;;;;;27.57;29.42;95727.19;6160293;28;104398;-54
2022/07/18 10:31:31;;;;;;;3.03;2.70;;;;;;;27.52;29.82;95724.66;6159967;28;103031;-53
2022/07/18 10:34:39;;;;;;;3.87;2.30;;;;;;;27.48;30.07;95719.16;6159635;28;104201;-53
2022/07/18 10:37:42;;;;;;;2.40;2.20;;;;;;;27.44;30.00;95721.72;6157880;28;103102;-55
2022/07/18 10:41:02;;;;;;;2.23;2.03;;;;;;;27.47;30.17;95717.59;6163838;28;103483;-54
2022/07/18 10:44:34;;;;;;;2.43;2.23;;;;;;;27.63;30.73;95721.28;6164192;28;104232;-53
2022/07/18 10:47:37;;;;;;;3.37;2.20;;;;;;;27.79;29.98;95721.53;6153516;28;104152;-53
2022/07/18 10:51:08;;;;;;;3.33;2.33;;;;;;;27.87;30.70;95719.91;6163914;28;102985;-55
2022/07/18 10:54:12;;;;;;;3.13;2.80;;;;;;;27.97;30.28;95714.94;6164385;28;104147;-54
2022/07/18 10:57:15;;;;;;;3.20;2.90;;;;;;;28.02;30.27;95719.34;6160795;28;103350;-55
2022/07/18 11:00:26;;;;;;;3.17;2.77;;;;;;;28.07;30.97;95713.78;6157889;28;103830;-54
2022/07/18 11:03:30;;;;;;;2.80;2.50;;;;;;;28.10;30.94;95710.44;6163516;28;103355;-54
2022/07/18 11:06:56;;;;;;;3.70;3.40;;;;;;;28.15;31.17;95698.66;6163411;28;103296;-54
2022/07/18 11:09:59;;;;;;;2.87;2.63;;;;;;;28.19;31.29;95699.56;6152915;28;103358;-54
2022/07/18 11:13:23;;;;;;;3.20;2.90;;;;;;;28.22;31.21;95699.69;6163253;28;104550;-53
2022/07/18 11:16:27;;;;;;;2.87;2.57;;;;;;;28.25;30.97;95698.28;6163692;28;103991;-54
2022/07/18 11:19:30;;;;;;;3.33;3.10;;;;;;;28.28;31.09;95703.00;6162955;28;103191;-53
2022/07/18 11:22:36;;;;;;;2.97;2.77;;;;;;;28.11;31.52;95687.00;6152645;28;103447;-53
2022/07/18 11:25:40;;;;;;;4.03;2.97;;;;;;;28.00;32.26;95689.28;6163216;28;103279;-53
2022/07/18 11:29:03;;;;;;;2.93;2.70;;;;;;;27.91;32.47;95688.56;6163491;28;103166;-53
2022/07/18 11:32:07;;;;;;;3.07;2.77;;;;;;;27.81;33.20;95687.00;6154252;28;103976;-52
2022/07/18 11:35:11;;;;;;;2.87;2.67;;;;;;;27.69;32.54;95686.91;6162059;28;103104;-54
2022/07/18 11:38:15;;;;;;;2.97;2.70;;;;;;;27.64;32.18;95682.53;6162458;28;103440;-53
2022/07/18 11:41:19;;;;;;;3.40;3.10;;;;;;;27.52;32.73;95687.03;6162723;28;103109;-53
2022/07/18 11:44:26;;;;;;;3.27;2.97;;;;;;;27.52;31.83;95679.75;6152200;28;103101;-54
2022/07/18 11:47:29;;;;;;;3.40;3.10;;;;;;;27.67;31.10;95675.72;6162259;28;103926;-53
2022/07/18 11:50:38;;;;;;;3.37;3.17;;;;;;;27.80;31.22;95677.38;6162365;28;103526;-53
2022/07/18 11:53:45;;;;;;;4.63;4.23;;;;;;;27.88;30.96;95667.69;6162684;28;104097;-53
2022/07/18 11:56:49;;;;;;;3.70;3.40;;;;;;;27.96;30.10;95664.16;6151753;28;103844;-53
2022/07/18 11:59:52;;;;;;;4.10;3.50;;;;;;;28.05;30.21;95662.16;6162011;28;102920;-52
2022/07/18 12:03:08;;;;;;;3.70;3.40;;;;;;;28.06;30.08;95666.47;6162294;28;105018;-54
2022/07/18 12:06:20;;;;;;;3.53;3.23;;;;;;;28.07;30.10;95659.16;6152256;28;103271;-53
2022/07/18 12:09:28;;;;;;;3.17;2.97;;;;;;;28.13;29.42;95660.53;6161691;28;104020;-53
2022/07/18 12:12:37;;;;;;;3.70;3.40;;;;;;;28.16;29.05;95651.78;6161687;28;104051;-53
2022/07/18 12:15:41;;;;;;;2.80;2.60;;;;;;;28.16;29.20;95643.72;6162130;28;103561;-53
2022/07/18 12:18:49;;;;;;;6.13;5.60;;;;;;;28.13;29.34;95642.47;6151770;28;103450;-54
2022/07/18 12:21:56;;;;;;;3.97;3.57;;;;;;;28.01;29.70;95648.59;6161906;28;102800;-53
2022/07/18 12:25:01;;;;;;;5.00;4.40;;;;;;;27.86;29.35;95643.81;6161890;28;104103;-53
2022/07/18 12:28:13;;;;;;;4.70;4.27;;;;;;;27.71;30.36;95647.03;6160630;28;104220;-53
2022/07/18 12:31:37;;;;;;;4.07;3.67;;;;;;;27.64;30.17;95638.72;6155688;28;104273;-53
2022/07/18 12:34:55;;;;;;;4.33;3.97;;;;;;;27.60;30.21;95637.81;6162374;28;103206;-53
2022/07/18 12:38:00;;;;;;;6.13;4.73;;;;;;;27.58;30.58;95634.66;6161584;28;103167;-53
2022/07/18 12:41:05;;;;;;;4.93;4.27;;;;;;;27.55;30.60;95638.75;6151160;28;103833;-52
2022/07/18 12:44:08;;;;;;;4.63;4.23;;;;;;;27.63;30.80;95629.06;6161956;28;103042;-54
2022/07/18 12:47:11;;;;;;;4.60;4.20;;;;;;;27.72;30.05;95632.47;6161329;28;103989;-54
2022/07/18 12:50:14;;;;;;;4.83;4.43;;;;;;;27.84;30.06;95627.16;6161334;28;103223;-53
2022/07/18 12:53:17;;;;;;;5.70;5.20;;;;;;;27.93;30.00;95627.16;6150894;28;103983;-52
2022/07/18 12:56:22;;;;;;;5.23;4.83;;;;;;;28.03;30.44;95624.03;6160510;28;103365;-53
2022/07/18 12:59:25;;;;;;;4.60;4.30;;;;;;;28.08;30.17;95623.84;6161594;28;104159;-54
2022/07/18 13:02:28;;;;;;;5.00;4.60;;;;;;;28.09;30.00;95624.63;6155980;28;103101;-53
2022/07/18 13:05:31;;;;;;;6.80;4.60;;;;;;;28.13;30.29;95625.53;6155925;28;104078;-53
2022/07/18 13:08:35;;;;;;;5.40;4.03;;;;;;;28.15;29.59;95618.72;6160512;28;103233;-53
2022/07/18 13:11:40;;;;;;;4.63;4.10;;;;;;;28.19;30.26;95621.53;6161278;28;103173;-53
2022/07/18 13:14:43;;;;;;;5.63;5.20;;;;;;;28.07;29.89;95614.22;6150133;28;105299;-53
2022/07/18 13:17:48;;;;;;;6.20;5.70;;;;;;;27.99;30.63;95613.16;6161455;28;102728;-53
2022/07/18 13:20:52;;;;;;;5.33;4.93;;;;;;;27.95;31.01;95612.25;6161285;28;103252;-58
2022/07/18 13:23:55;;;;;;;5.87;5.37;;;;;;;27.74;31.33;95608.75;6161084;28;102914;-54
2022/07/18 13:26:59;;;;;;;6.20;5.70;;;;;;;27.48;31.77;95606.25;6151178;28;103924;-53
2022/07/18 13:30:04;;;;;;;8.03;5.87;;;;;;;27.56;31.69;95608.09;6161063;28;102918;-53
2022/07/18 13:33:08;;;;;;;6.70;6.10;;;;;;;27.57;32.17;95612.34;6161686;28;103960;-53
2022/07/18 13:36:11;;;;;;;5.90;5.43;;;;;;;27.55;32.10;95605.72;6160994;28;104034;-52
2022/07/18 13:39:14;;;;;;;6.60;5.80;;;;;;;27.60;32.16;95608.22;6151435;28;104244;-55
2022/07/18 13:42:19;;;;;;;5.53;5.13;;;;;;;27.70;31.62;95611.28;6160546;28;103361;-53
2022/07/18 13:45:22;;;;;;;6.20;5.70;;;;;;;27.75;31.04;95613.00;6160827;28;103079;-53
2022/07/18 13:48:25;;;;;;;7.27;5.80;;;;;;;27.89;31.57;95605.50;6150653;28;103171;-55
2022/07/18 13:51:28;;;;;;;8.03;5.90;;;;;;;27.99;31.87;95606.97;6160597;28;103200;-54
2022/07/18 13:54:32;;;;;;;6.30;5.80;;;;;;;28.05;31.77;95611.81;6160607;28;104084;-54
2022/07/18 13:57:37;;;;;;;5.67;5.27;;;;;;;28.09;31.40;95605.81;6160680;28;103236;-53
2022/07/18 14:00:40;;;;;;;6.23;5.63;;;;;;;28.11;32.07;95611.63;6150587;28;104966;-56
2022/07/18 14:03:43;;;;;;;7.87;7.27;;;;;;;28.01;32.21;95604.75;6161252;28;103020;-56
2022/07/18 14:06:46;;;;;;;8.07;7.40;;;;;;;27.98;32.59;95608.88;6160648;28;102986;-56
2022/07/18 14:09:50;;;;;;;7.30;6.70;;;;;;;27.98;31.95;95608.88;6164269;28;103331;-57
2022/07/18 14:12:58;;;;;;;6.83;6.23;;;;;;;27.82;32.82;95609.78;6154468;28;102955;-56
2022/07/18 14:16:01;;;;;;;7.70;6.60;;;;;;;27.62;33.13;95600.63;6164718;28;104079;-55
2022/07/18 14:19:04;;;;;;;4.23;3.80;;;;;;;27.61;31.96;95612.47;6164518;28;102749;-56
2022/07/18 14:22:09;;;;;;;3.60;3.30;;;;;;;27.51;31.20;95600.19;6159256;28;105016;-55
2022/07/18 14:25:15;;;;;;;4.00;3.10;;;;;;;27.44;30.99;95598.03;6159480;28;103012;-55